Velkommen til Søllested vejret

webcam Søllestedvejret  webcam Søllestedvejret


Thunder radar more information blitzortung!


3 Timers nedbørs radar more information rain snow radar


Besøg nogle andre vejrsider:

Template documentation
and downloads

And another site



No particular awareness of the weather is required.    There are no Weather-warnings

Weather Underground Historie, Tekst side

Dagens Sammenfatning af Oktober 22, 2018 Enheder:  Metrisk    Engelsk   Både
« Forgående Dag
Næste Dag »
Dagens Ugenligt månedlig Årligt Tilpasset
  Aktuelt: Høj: Lav: Gennemsnit:
Temperatur: -11.4 °C -17.8 °C -12.7 °C -11.5 °C
Dugpunkt: -14.7 °C -17.8 °C -15.3 °C -13.6 °C
Luftfugtighed: 67 % Humidity % 60 % 78 %
Vindhastighed: 23.3 km/h 0 km/h 2.6 km/h 28.8 km/h
Vindstød: 49.2 km/h 0 km/h - -
Vind:WNW - - WNW
Lufttryk: 34770.8 hPa 0 hPa 34604.9 hPa -
Nedbør: 25.4 mm      
Historical Graphs
 
 
Tabeldata for Oktober 22, 2018
Tid Temperatur Dugpunkt Lufttryk Vind Vindhastighed Vindstød Luftfugtighed Regn (timme)
-17.8 °C -17.8 °C 0 hPa Calm     Humidity % 0 mm
00:04 -10.5 °C -11.8 °C 34642.2 hPa SW 44.7 km/h 34.4 km/h 85 % 0 mm
00:09 -10.5 °C -11.8 °C 34642.2 hPa WSW 50.7 km/h 47.6 km/h 85 % 0 mm
00:14 -10.5 °C -11.8 °C 34645.6 hPa SSW 32.8 km/h 39.9 km/h 85 % 0 mm
00:19 -10.5 °C -11.9 °C 34638.8 hPa SSW 44.7 km/h 39.4 km/h 85 % 0 mm
00:24 -10.6 °C -11.9 °C 34638.8 hPa SW 35.7 km/h 31.4 km/h 85 % 0 mm
00:29 -10.6 °C -11.9 °C 34635.4 hPa SW 38.8 km/h 32.7 km/h 86 % 0 mm
00:34 -10.6 °C -11.9 °C 34635.4 hPa SW 41.7 km/h 40.1 km/h 86 % 0 mm
00:39 -10.6 °C -11.9 °C 34635.4 hPa WSW 41.7 km/h 35.2 km/h 86 % 0 mm
00:44 -10.6 °C -11.9 °C 34635.4 hPa SSW 44.7 km/h 34.8 km/h 86 % 0 mm
00:49 -10.6 °C -11.9 °C 34635.4 hPa SW 35.7 km/h 25.1 km/h 86 % 0 mm
00:54 -10.6 °C -11.9 °C 34635.4 hPa SW 35.7 km/h 30.7 km/h 86 % 0 mm
00:59 -10.6 °C -11.8 °C 34635.4 hPa SSW 56.6 km/h 39.4 km/h 86 % 0 mm
01:04 -10.6 °C -11.8 °C 34632 hPa SW 50.7 km/h 41.7 km/h 86 % 0 mm
01:09 -10.5 °C -11.8 °C 34632 hPa SSW 62.6 km/h 27.5 km/h 86 % 0 mm
01:14 -10.6 °C -11.8 °C 34632 hPa SSW 62.6 km/h 22 km/h 86 % 0 mm
01:19 -10.6 °C -11.8 °C 34632 hPa West 42.6 km/h 29.3 km/h 86 % 0 mm
01:24 -10.6 °C -11.8 °C 34632 hPa SW 44.7 km/h 37.5 km/h 86 % 0 mm
01:28 -10.5 °C -11.8 °C 34628.6 hPa SW 53.6 km/h 47.2 km/h 86 % 0 mm
01:30 -10.5 °C -11.8 °C 34628.6 hPa SW 53.6 km/h 47.6 km/h 86 % 0 mm
01:39 -10.5 °C -11.8 °C 34628.6 hPa SW 54.9 km/h 43 km/h 86 % 0 mm
01:41 -10.5 °C -11.8 °C 34628.6 hPa SW 53.6 km/h 41.4 km/h 86 % 0 mm
01:49 -10.5 °C -11.8 °C 34628.6 hPa SSW 53.6 km/h 41.4 km/h 86 % 0 mm
01:50 -10.5 °C -11.8 °C 34628.6 hPa SSW 53.6 km/h 31.9 km/h 86 % 0 mm
01:56 -10.6 °C -11.8 °C 34625.2 hPa West 39.6 km/h 29 km/h 86 % 0 mm
02:01 -10.6 °C -11.8 °C 34625.2 hPa SW 35.7 km/h 26.9 km/h 86 % 0 mm
02:45 -10.8 °C -11.8 °C 34611.7 hPa SW 18.2 km/h 44.1 km/h 89 % 0 mm
02:50 -10.9 °C -11.8 °C 34608.3 hPa WSW 23.3 km/h 51.8 km/h 90 % 7.62 mm
02:55 -10.9 °C -11.8 °C 34608.3 hPa WSW 23.3 km/h 38.8 km/h 91 % 7.62 mm
03:00 -11 °C -11.7 °C 34608.3 hPa WSW 20.8 km/h 36.2 km/h 92 % 0 mm
03:05 -11 °C -11.7 °C 34608.3 hPa WSW 18.2 km/h 31.1 km/h 92 % 0 mm
03:10 -11 °C -11.7 °C 34604.9 hPa WSW 25.9 km/h 46.7 km/h 92 % 0 mm
03:15 -11 °C -11.7 °C 34604.9 hPa WSW 20.8 km/h 36.2 km/h 92 % 0 mm
03:20 -10.9 °C -11.6 °C 34604.9 hPa WSW 20.8 km/h 38.8 km/h 93 % 0 mm
03:25 -10.9 °C -11.6 °C 34604.9 hPa West 20.8 km/h 38.8 km/h 93 % 0 mm
03:30 -10.9 °C -11.5 °C 34608.3 hPa West 23.3 km/h 38.8 km/h 93 % 0 mm
03:35 -10.9 °C -11.6 °C 34611.7 hPa WNW 2.6 km/h 44.1 km/h 93 % 7.62 mm
03:40 -11.1 °C -11.7 °C 34615.1 hPa NW 18.2 km/h 33.6 km/h 93 % 7.62 mm
03:45 -11.2 °C -11.8 °C 34615.1 hPa NNW 12.9 km/h 36.2 km/h 93 % 0 mm
03:50 -11.2 °C -11.8 °C 34618.5 hPa NNW 2.6 km/h 31.1 km/h 93 % 0 mm
03:55 -11.2 °C -11.7 °C 34618.5 hPa NNW 7.7 km/h 28.5 km/h 94 % 0 mm
04:00 -11.2 °C -11.7 °C 34621.9 hPa NNW 5.1 km/h 23.3 km/h 94 % 0 mm
04:05 -11.2 °C -11.7 °C 34621.9 hPa NNW 12.9 km/h 20.8 km/h 94 % 0 mm
07:04 -11.9 °C -13 °C 34676 hPa NW 18.3 km/h 15.8 km/h 88 % 0 mm
07:09 -11.9 °C -13.1 °C 34676 hPa NNW 20.9 km/h 16.1 km/h 87 % 0 mm
07:14 -12 °C -13.2 °C 34676 hPa NNW 35.7 km/h 15.8 km/h 87 % 0 mm
07:20 -12.1 °C -13.2 °C 34679.4 hPa NW 12.9 km/h 23.3 km/h 87 % 0 mm
07:25 -12.2 °C -13.3 °C 34679.4 hPa NW 12.9 km/h 28.5 km/h 87 % 0 mm
07:30 -12.2 °C -13.4 °C 34682.8 hPa NW 12.9 km/h 23.3 km/h 87 % 0 mm
07:35 -12.3 °C -13.4 °C 34686.2 hPa WNW 15.6 km/h 28.5 km/h 87 % 0 mm
07:39 -12.3 °C -13.5 °C 34689.6 hPa WNW 20.9 km/h 12.4 km/h 87 % 0 mm
07:45 -12.4 °C -13.6 °C 34693 hPa WNW 12.9 km/h 18.2 km/h 87 % 0 mm
07:50 -12.4 °C -13.6 °C 34693 hPa WNW 15.6 km/h 23.3 km/h 87 % 0 mm
07:54 -12.6 °C -13.7 °C 34696.3 hPa WNW 17.9 km/h 9.7 km/h 87 % 0 mm
07:59 -12.6 °C -13.7 °C 34699.7 hPa WNW 17.9 km/h 9.7 km/h 88 % 0 mm
08:04 -12.7 °C -13.7 °C 34699.7 hPa WNW 17.9 km/h 17.1 km/h 88 % 0 mm
08:09 -12.7 °C -13.7 °C 34703.1 hPa WNW 20.9 km/h 15.8 km/h 89 % 0 mm
08:14 -12.7 °C -13.7 °C 34706.5 hPa WNW 29.8 km/h 14.2 km/h 89 % 0 mm
08:20 -12.7 °C -13.7 °C 34709.9 hPa WNW 15.6 km/h 38.8 km/h 89 % 0 mm
08:25 -12.6 °C -13.6 °C 34709.9 hPa NW 18.2 km/h 33.6 km/h 89 % 0 mm
08:30 -12.6 °C -13.6 °C 34713.3 hPa NW 18.2 km/h 36.2 km/h 89 % 0 mm
08:34 -12.6 °C -13.6 °C 34716.7 hPa WNW 29.8 km/h 22 km/h 89 % 0 mm
08:40 -12.6 °C -13.6 °C 34720 hPa NW 18.2 km/h 41.4 km/h 89 % 0 mm
08:45 -12.6 °C -13.7 °C 34723.4 hPa NW 23.3 km/h 36.2 km/h 88 % 0 mm
08:50 -12.6 °C -13.7 °C 34723.4 hPa WNW 20.8 km/h 44.1 km/h 88 % 0 mm
08:54 -12.6 °C -13.7 °C 34730.2 hPa WNW 35.7 km/h 20.9 km/h 87 % 0 mm
09:00 -12.6 °C -13.7 °C 34733.6 hPa WNW 15.6 km/h 36.2 km/h 87 % 0 mm
09:04 -12.6 °C -13.8 °C 34737 hPa WNW 35.7 km/h 10.9 km/h 86 % 0 mm
09:09 -12.6 °C -13.8 °C 34737 hPa NW 32.8 km/h 20.8 km/h 86 % 0 mm
09:15 -12.6 °C -13.8 °C 34740.4 hPa NW 20.8 km/h 28.5 km/h 86 % 0 mm
09:19 -12.5 °C -13.7 °C 34740.4 hPa WNW 32.8 km/h 14.5 km/h 86 % 0 mm
09:25 -12.4 °C -13.7 °C 34743.7 hPa WNW 15.6 km/h 31.1 km/h 86 % 0 mm
09:30 -12.4 °C -13.7 °C 34743.7 hPa WNW 7.7 km/h 28.5 km/h 85 % 0 mm
09:35 -12.3 °C -13.7 °C 34747.1 hPa WNW 15.6 km/h 28.5 km/h 85 % 0 mm
09:40 -12.3 °C -13.7 °C 34747.1 hPa West 23.8 km/h 17.1 km/h 84 % 0 mm
09:44 -12.2 °C -13.7 °C 34750.5 hPa WNW 26.9 km/h 11.6 km/h 83 % 0 mm
09:50 -12.1 °C -13.7 °C 34750.5 hPa WNW 18.2 km/h 31.1 km/h 83 % 0 mm
09:55 -12.1 °C -13.7 °C 34750.5 hPa NW 23.3 km/h 33.6 km/h 82 % 0 mm
10:00 -11.9 °C -13.6 °C 34750.5 hPa NW 20.8 km/h 36.2 km/h 82 % 0 mm
10:04 -11.8 °C -13.6 °C 34750.5 hPa WNW 26.9 km/h 20.9 km/h 81 % 0 mm
10:09 -11.7 °C -13.4 °C 34750.5 hPa WNW 36.7 km/h 18.2 km/h 81 % 0 mm
10:15 -11.7 °C -13.6 °C 34753.9 hPa WNW 31.1 km/h 46.7 km/h 79 % 0 mm
10:20 -11.6 °C -13.5 °C 34753.9 hPa NW 31.1 km/h 38.8 km/h 79 % 0 mm
10:25 -11.5 °C -13.6 °C 34757.3 hPa WNW 42.6 km/h 24.3 km/h 78 % 0 mm
10:30 -11.5 °C -13.7 °C 34757.3 hPa NW 23.3 km/h 44.1 km/h 77 % 0 mm
10:35 -11.6 °C -13.9 °C 34760.7 hPa NW 20.8 km/h 46.7 km/h 76 % 0 mm
10:39 -11.8 °C -14 °C 34764.1 hPa WNW 29.8 km/h 18.8 km/h 76 % 0 mm
10:44 -11.9 °C -14.1 °C 34767.4 hPa West 29.8 km/h 14.5 km/h 76 % 0 mm
10:50 -11.9 °C -14.2 °C 34767.4 hPa NW 25.9 km/h 33.6 km/h 76 % 0 mm
10:55 -12 °C -14.3 °C 34767.4 hPa NW 20.8 km/h 38.8 km/h 76 % 0 mm
11:00 -12 °C -14.2 °C 34767.4 hPa NW 18.2 km/h 33.6 km/h 77 % 0 mm
11:05 -12.1 °C -14.2 °C 34767.4 hPa WNW 15.6 km/h 33.6 km/h 77 % 0 mm
11:10 -12.1 °C -14.2 °C 34774.2 hPa WNW 18.2 km/h 33.6 km/h 77 % 0 mm
11:15 -12.1 °C -14.1 °C 34774.2 hPa WNW 33.6 km/h 17.9 km/h 78 % 0 mm
11:19 -12.1 °C -14.1 °C 34777.6 hPa NNW 23.8 km/h 15.3 km/h 78 % 0 mm
11:25 -12.1 °C -14.1 °C 34777.6 hPa NW 15.6 km/h 36.2 km/h 78 % 0 mm
11:30 -12.1 °C -14.2 °C 34781 hPa WNW 18.2 km/h 33.6 km/h 78 % 0 mm
11:34 -12.2 °C -14.2 °C 34784.4 hPa North 20.9 km/h 20.4 km/h 78 % 0 mm
11:39 -11.9 °C -13.9 °C 34777.6 hPa NW 41.7 km/h 12.4 km/h 78 % 0 mm
11:44 -11.6 °C -13.8 °C 34781 hPa WNW 45.9 km/h 33.2 km/h 77 % 0 mm
11:49 -11.5 °C -13.9 °C 34781 hPa WNW 50.7 km/h 36 km/h 75 % 0 mm
11:54 -11.5 °C -14.1 °C 34777.6 hPa NW 50.7 km/h 31.1 km/h 73 % 0 mm
12:00 -11.5 °C -14.1 °C 34781 hPa NW 25.9 km/h 49.2 km/h 73 % 0 mm
12:05 -11.5 °C -14.2 °C 34777.6 hPa NW 31.1 km/h 49.2 km/h 72 % 0 mm
12:10 -11.4 °C -14.1 °C 34777.6 hPa NW 33.6 km/h 49.2 km/h 72 % 0 mm
12:15 -11.3 °C -14.2 °C 34781 hPa WNW 31.1 km/h 49.2 km/h 71 % 0 mm
12:20 -11.3 °C -14.3 °C 34777.6 hPa WNW 33.6 km/h 57 km/h 70 % 0 mm
12:25 -11.3 °C -14.2 °C 34777.6 hPa NW 23.3 km/h 44.1 km/h 70 % 0 mm
12:30 -11.3 °C -14.4 °C 34777.6 hPa NW 33.6 km/h 57 km/h 68 % 0 mm
12:35 -11.3 °C -14.6 °C 34781 hPa NW 31.1 km/h 57 km/h 68 % 0 mm
12:40 -11.4 °C -14.6 °C 34781 hPa NNW 20.8 km/h 54.4 km/h 68 % 0 mm
12:45 -11.3 °C -14.7 °C 34784.4 hPa NNW 25.9 km/h 57 km/h 67 % 0 mm
12:50 -11.3 °C -14.6 °C 34781 hPa NW 23.3 km/h 38.8 km/h 67 % 0 mm
12:55 -11.3 °C -14.6 °C 34777.6 hPa NW 15.6 km/h 36.2 km/h 67 % 0 mm
12:59 -11.2 °C -14.4 °C 34777.6 hPa NNW 24.3 km/h 18.7 km/h 68 % 0 mm
13:05 -11.2 °C -14.6 °C 34781 hPa WNW 47.6 km/h 28 km/h 66 % 0 mm
13:10 -11.2 °C -14.4 °C 34781 hPa NW 33.6 km/h 49.2 km/h 67 % 0 mm
13:14 -11.2 °C -14.7 °C 34781 hPa NW 44.7 km/h 34.1 km/h 65 % 0 mm
13:20 -11.3 °C -14.9 °C 34784.4 hPa NW 33.6 km/h 54.4 km/h 64 % 7.62 mm
13:25 -11.3 °C -15.1 °C 34784.4 hPa NW 38.8 km/h 57 km/h 63 % 7.62 mm
13:29 -11.2 °C -14.9 °C 34784.4 hPa West 35.7 km/h 17.9 km/h 64 % 7.62 mm
13:35 -11.2 °C -14.9 °C 34791.2 hPa NW 31.1 km/h 49.2 km/h 63 % 0 mm
13:39 -11.1 °C -14.9 °C 34791.2 hPa NW 42.6 km/h 28 km/h 63 % 7.62 mm
13:45 -11.1 °C -15 °C 34791.2 hPa NW 36.2 km/h 49.2 km/h 62 % 0 mm
13:49 -11.2 °C -15.1 °C 34787.8 hPa NW 42.6 km/h 29.5 km/h 62 % 7.62 mm
13:55 -11.2 °C -15.2 °C 34784.4 hPa NW 25.9 km/h 54.4 km/h 61 % 0 mm
13:59 -11.1 °C -15.3 °C 34784.4 hPa NNW 47.6 km/h 32.8 km/h 60 % 7.62 mm
14:05 -11.1 °C -15.2 °C 34781 hPa WNW 23.3 km/h 44.1 km/h 61 % 0 mm
14:09 -11.1 °C -15.1 °C 34777.6 hPa WNW 38.8 km/h 20.9 km/h 61 % 7.62 mm
14:15 -11 °C -14.9 °C 34777.6 hPa WNW 25.9 km/h 38.8 km/h 62 % 0 mm
14:20 -10.9 °C -15 °C 34774.2 hPa WNW 31.1 km/h 54.4 km/h 61 % 0 mm
14:25 -10.9 °C -15.2 °C 34774.2 hPa WNW 25.9 km/h 49.2 km/h 60 % 0 mm
14:29 -10.9 °C -15.1 °C 34770.8 hPa NW 26.9 km/h 29.5 km/h 61 % 0 mm
14:35 -10.9 °C -14.8 °C 34770.8 hPa NW 20.8 km/h 38.8 km/h 62 % 0 mm
14:40 -11 °C -15.1 °C 34770.8 hPa NW 23.3 km/h 38.8 km/h 61 % 0 mm
14:45 -11.1 °C -14.9 °C 34774.2 hPa WNW 20.8 km/h 33.6 km/h 63 % 0 mm
14:50 -11 °C -14.9 °C 34774.2 hPa WNW 23.3 km/h 44.1 km/h 62 % 0 mm
14:55 -10.9 °C -14.8 °C 34777.6 hPa WNW 25.9 km/h 44.1 km/h 63 % 0 mm
15:00 -11 °C -14.8 °C 34777.6 hPa WNW 23.3 km/h 44.1 km/h 63 % 0 mm
15:04 -10.9 °C -14.9 °C 34781 hPa West 41.7 km/h 26.7 km/h 62 % 0 mm
15:10 -11.1 °C -15.2 °C 34784.4 hPa WNW 38.8 km/h 62.1 km/h 60 % 0 mm
15:15 -11.1 °C -15.3 °C 34787.8 hPa NW 23.3 km/h 57 km/h 60 % 0 mm
15:20 -11.1 °C -15.1 °C 34787.8 hPa NW 31.1 km/h 44.1 km/h 61 % 0 mm
15:25 -11.1 °C -14.8 °C 34784.4 hPa WNW 33.6 km/h 51.8 km/h 63 % 0 mm
15:30 -11.1 °C -14.8 °C 34787.8 hPa WNW 25.9 km/h 51.8 km/h 64 % 0 mm
15:35 -11.1 °C -14.8 °C 34794.5 hPa WNW 25.9 km/h 38.8 km/h 64 % 0 mm
15:40 -11.1 °C -14.6 °C 34794.5 hPa WNW 25.9 km/h 38.8 km/h 65 % 0 mm
15:45 -11.1 °C -14.8 °C 34787.8 hPa WNW 25.9 km/h 38.8 km/h 64 % 0 mm
15:50 -11.1 °C -14.6 °C 34787.8 hPa WNW 20.8 km/h 36.2 km/h 65 % 0 mm
15:55 -11.2 °C -14.7 °C 34787.8 hPa WNW 18.2 km/h 46.7 km/h 65 % 0 mm
16:00 -11.3 °C -14.7 °C 34787.8 hPa NW 23.3 km/h 33.6 km/h 66 % 0 mm
16:04 -11.4 °C -14.8 °C 34787.8 hPa WNW 38.8 km/h 29 km/h 66 % 0 mm
16:09 -11.4 °C -14.7 °C 34787.8 hPa West 32.8 km/h 25.9 km/h 67 % 0 mm
16:15 -11.3 °C -14.7 °C 34781 hPa WNW 18.2 km/h 46.7 km/h 66 % 0 mm
16:20 -11.3 °C -14.8 °C 34777.6 hPa WNW 31.1 km/h 62.1 km/h 65 % 0 mm
16:25 -11.3 °C -14.9 °C 34767.4 hPa West 44.1 km/h 54.4 km/h 65 % 0 mm
16:30 -11.4 °C -14.7 °C 34770.8 hPa WNW 23.3 km/h 49.2 km/h 67 % 0 mm
Søllestedvejret
Tilladelse af Weather Underground - 2.25 mb

Script udviklet af  Jim McMurry - jmcmurry@mwt.net Tilpasset til dette template  Wim van der Kuil - Leuven-Template.eu